Danville, IL

7:03 PM CDT on August 28, 2016 (GMT -0500)
Danville Area Community College | | Change Station

Elev 656 ft 40.13 °N, 87.59 °W | Updated 1 minute ago

Scattered Clouds
Scattered Clouds
83.1 °F
Feels Like 90 °F
N
4.0
Wind Variable Wind from NNW
Gusts 6.0 mph

Today
High -- | Low -- °F
--% Chance of Precip.
Yesterday
High -- | Low -- °F
Precip. -- in
Pressure 30.13 in
Visibility 10.0 miles
Clouds Scattered Clouds 4500 ft
Heat Index 90 °F
Dew Point 74 °F
Humidity 75%
Rainfall 0.00 in
Snow Depth Not available.
6:14 AM 7:27 PM
Waning Crescent, 12% visible
METAR KDNV 282355Z AUTO 07006KT 10SM SCT045 26/24 A3013 RMK AO2 60017 T02600236 10318 20260
Pressure 30.13 in
Visibility 10.0 miles
Clouds Scattered Clouds 4500 ft
Heat Index 90 °F
Dew Point 74 °F
Humidity 75%
Rainfall 0.00 in
Snow Depth Not available.
6:14 AM 7:27 PM
Waning Crescent, 12% visible
METAR KDNV 282355Z AUTO 07006KT 10SM SCT045 26/24 A3013 RMK AO2 60017 T02600236 10318 20260

10-Day Weather Forecast

Almanac

Astronomy

Aug. 28, 2016 Rise Set
Actual Time
Civil Twilight
Nautical Twilight
Astronomical Twilight
Moon
Length of Visible Light
Length of Day
Tomorrow will be .
, % of the Moon is Illuminated

Today's Extremes

State Highs State Lows

Community

WunderPhotos

Upload Photos

1,935,726 photos uploaded!

WunderBlog® & News

Nearby

Air Quality

  Air Quality AQ Index Pollutant
Not available.

Snow Depth

Station Depth Elevation

Earthquake Activity

City Distance Mag. Time & Date
Minimum magnitude displayed is 2.5.

Coastal Water Temperatures

Place Temperature

Stations

Nearby Weather Stations

Station Location Temp. Windchill Dew Point Humidity Wind Precip. Elev Updated Type
                   

Watches & Warnings

There are currently no watches in effect.